Mini Explorer — FGD5276 — position and weather

sailwx.info

Track history (hours):
 
Tides and Currents Weather Stations Pressure Air Temp Water Temp Dewpoint Dewpoint Depression Visibility Wind Speed Wind Dir Waves Ship Positions

Mini Explorer

Last reported at 2017-May-13 19:36 UTC. Time now 2017-Jun-27 12:11 UTC.
Position N 47°44' W 003°22'.
Warning: this ship's position is 44 days out of date.

Length 6 m.

Type: Sailing vessel. MMSI: 227568370.

Date/timePositionNaut miles runAvg speedWind from/ knotsBaromVisibWave heightAir tempDewpointWater temp
2017-May-13 19:36N 47°44' W 003°22'0 0.0
2017-May-13 19:30N 47°44' W 003°22'1 1.2
2017-May-13 19:00N 47°43' W 003°22'3 6.1
2017-May-13 18:31N 47°40' W 003°21'4 7.8
2017-May-13 18:01N 47°37' W 003°19'4 8.0
2017-May-13 17:30N 47°33' W 003°18'4 8.6
2017-May-13 17:00N 47°30' W 003°13'  
2017-May-09 12:48N 47°24' W 002°53'9 2.9
2017-May-09 09:52N 47°30' W 003°02'3 6.2
2017-May-09 09:22N 47°33' W 003°00'  
Track history (hours):
 
Tides and Currents Weather Stations Pressure Air Temp Water Temp Dewpoint Dewpoint Depression Visibility Wind Speed Wind Dir Waves Ship Positions

Mini Explorer

Last reported at 2017-May-13 19:36 UTC. Time now 2017-Jun-27 12:11 UTC.
Position N 47°44' W 003°22'.
Warning: this ship's position is 44 days out of date.

Length 6 m.

Type: Sailing vessel. MMSI: 227568370.

Date/timePositionNaut miles runAvg speedWind from/ knotsBaromVisibWave heightAir tempDewpointWater temp
2017-May-13 19:36N 47°44' W 003°22'0 0.0
2017-May-13 19:30N 47°44' W 003°22'1 1.2
2017-May-13 19:00N 47°43' W 003°22'3 6.1
2017-May-13 18:31N 47°40' W 003°21'4 7.8
2017-May-13 18:01N 47°37' W 003°19'4 8.0
2017-May-13 17:30N 47°33' W 003°18'4 8.6
2017-May-13 17:00N 47°30' W 003°13'  
2017-May-09 12:48N 47°24' W 002°53'9 2.9
2017-May-09 09:52N 47°30' W 003°02'3 6.2
2017-May-09 09:22N 47°33' W 003°00'  

Dump ship's entire track history